sensor_id;sensor_type;location;lat;lon;timestamp;P1;durP1;ratioP1;P2;durP2;ratioP2
12958;SDS011;6544;51.666;6.634;2023-07-09T00:00:46;7.07;;;5.15;;
12958;SDS011;6544;51.666;6.634;2023-07-09T00:03:14;7.97;;;5.20;;
12958;SDS011;6544;51.666;6.634;2023-07-09T00:05:41;8.52;;;5.07;;
12958;SDS011;6544;51.666;6.634;2023-07-09T00:08:10;7.15;;;4.97;;
12958;SDS011;6544;51.666;6.634;2023-07-09T00:10:50;6.60;;;4.68;;
12958;SDS011;6544;51.666;6.634;2023-07-09T00:13:18;7.10;;;5.00;;
12958;SDS011;6544;51.666;6.634;2023-07-09T00:15:45;7.20;;;4.88;;
12958;SDS011;6544;51.666;6.634;2023-07-09T00:18:12;6.70;;;4.68;;
12958;SDS011;6544;51.666;6.634;2023-07-09T00:20:39;9.98;;;4.97;;
12958;SDS011;6544;51.666;6.634;2023-07-09T00:23:06;7.90;;;5.05;;
12958;SDS011;6544;51.666;6.634;2023-07-09T00:25:34;8.27;;;5.22;;
12958;SDS011;6544;51.666;6.634;2023-07-09T00:28:01;7.65;;;5.03;;
12958;SDS011;6544;51.666;6.634;2023-07-09T00:30:30;8.13;;;4.88;;
12958;SDS011;6544;51.666;6.634;2023-07-09T00:32:57;8.30;;;5.15;;
12958;SDS011;6544;51.666;6.634;2023-07-09T00:35:23;7.47;;;5.00;;
12958;SDS011;6544;51.666;6.634;2023-07-09T00:37:50;8.82;;;5.20;;
12958;SDS011;6544;51.666;6.634;2023-07-09T00:40:18;7.40;;;4.88;;
12958;SDS011;6544;51.666;6.634;2023-07-09T00:42:48;7.68;;;4.97;;
12958;SDS011;6544;51.666;6.634;2023-07-09T00:45:20;7.05;;;4.80;;
12958;SDS011;6544;51.666;6.634;2023-07-09T00:47:51;6.90;;;5.00;;
12958;SDS011;6544;51.666;6.634;2023-07-09T00:50:24;9.85;;;5.22;;
12958;SDS011;6544;51.666;6.634;2023-07-09T00:52:59;7.10;;;4.50;;
12958;SDS011;6544;51.666;6.634;2023-07-09T00:55:32;6.72;;;4.90;;
12958;SDS011;6544;51.666;6.634;2023-07-09T00:58:05;8.63;;;5.00;;
12958;SDS011;6544;51.666;6.634;2023-07-09T01:00:36;8.93;;;4.75;;
12958;SDS011;6544;51.666;6.634;2023-07-09T01:03:13;8.48;;;5.38;;
12958;SDS011;6544;51.666;6.634;2023-07-09T01:05:47;8.98;;;5.18;;
12958;SDS011;6544;51.666;6.634;2023-07-09T01:08:16;9.55;;;5.43;;
12958;SDS011;6544;51.666;6.634;2023-07-09T01:10:45;7.90;;;5.30;;
12958;SDS011;6544;51.666;6.634;2023-07-09T01:13:12;12.77;;;4.70;;
12958;SDS011;6544;51.666;6.634;2023-07-09T01:15:39;8.23;;;4.90;;
12958;SDS011;6544;51.666;6.634;2023-07-09T01:18:07;6.47;;;4.93;;
12958;SDS011;6544;51.666;6.634;2023-07-09T01:20:37;8.15;;;4.95;;
12958;SDS011;6544;51.666;6.634;2023-07-09T01:23:06;7.32;;;5.20;;
12958;SDS011;6544;51.666;6.634;2023-07-09T01:25:34;7.30;;;4.72;;
12958;SDS011;6544;51.666;6.634;2023-07-09T01:28:11;7.97;;;4.75;;
12958;SDS011;6544;51.666;6.634;2023-07-09T01:30:40;7.70;;;5.05;;
12958;SDS011;6544;51.666;6.634;2023-07-09T01:33:07;7.07;;;4.78;;
12958;SDS011;6544;51.666;6.634;2023-07-09T01:35:35;6.82;;;5.00;;
12958;SDS011;6544;51.666;6.634;2023-07-09T01:38:07;9.00;;;5.07;;
12958;SDS011;6544;51.666;6.634;2023-07-09T01:40:35;7.85;;;5.28;;
12958;SDS011;6544;51.666;6.634;2023-07-09T01:43:03;6.55;;;5.13;;
12958;SDS011;6544;51.666;6.634;2023-07-09T01:45:32;7.22;;;4.93;;
12958;SDS011;6544;51.666;6.634;2023-07-09T01:48:00;7.43;;;5.43;;
12958;SDS011;6544;51.666;6.634;2023-07-09T01:50:28;6.10;;;4.93;;
12958;SDS011;6544;51.666;6.634;2023-07-09T01:52:55;8.48;;;5.40;;
12958;SDS011;6544;51.666;6.634;2023-07-09T01:55:25;7.80;;;5.32;;
12958;SDS011;6544;51.666;6.634;2023-07-09T01:57:52;8.55;;;5.40;;
12958;SDS011;6544;51.666;6.634;2023-07-09T02:00:19;9.38;;;5.65;;
12958;SDS011;6544;51.666;6.634;2023-07-09T02:02:46;6.45;;;5.00;;
12958;SDS011;6544;51.666;6.634;2023-07-09T02:05:13;7.03;;;5.13;;
12958;SDS011;6544;51.666;6.634;2023-07-09T02:07:43;7.53;;;5.47;;
12958;SDS011;6544;51.666;6.634;2023-07-09T02:10:10;8.13;;;5.53;;
12958;SDS011;6544;51.666;6.634;2023-07-09T02:12:40;7.32;;;5.38;;
12958;SDS011;6544;51.666;6.634;2023-07-09T02:15:07;8.70;;;5.60;;
12958;SDS011;6544;51.666;6.634;2023-07-09T02:17:35;10.23;;;5.70;;
12958;SDS011;6544;51.666;6.634;2023-07-09T02:20:02;8.05;;;5.22;;
12958;SDS011;6544;51.666;6.634;2023-07-09T02:22:30;9.20;;;5.60;;
12958;SDS011;6544;51.666;6.634;2023-07-09T02:24:57;9.00;;;6.05;;
12958;SDS011;6544;51.666;6.634;2023-07-09T02:27:25;8.60;;;5.32;;
12958;SDS011;6544;51.666;6.634;2023-07-09T02:29:54;7.20;;;5.63;;
12958;SDS011;6544;51.666;6.634;2023-07-09T02:32:21;8.15;;;5.80;;
12958;SDS011;6544;51.666;6.634;2023-07-09T02:34:51;12.82;;;6.40;;
12958;SDS011;6544;51.666;6.634;2023-07-09T02:37:19;8.20;;;5.53;;
12958;SDS011;6544;51.666;6.634;2023-07-09T02:39:47;6.68;;;5.40;;
12958;SDS011;6544;51.666;6.634;2023-07-09T02:42:15;8.93;;;5.65;;
12958;SDS011;6544;51.666;6.634;2023-07-09T02:44:44;12.02;;;6.18;;
12958;SDS011;6544;51.666;6.634;2023-07-09T02:47:13;10.40;;;5.78;;
12958;SDS011;6544;51.666;6.634;2023-07-09T02:49:40;11.10;;;5.53;;
12958;SDS011;6544;51.666;6.634;2023-07-09T02:52:07;9.02;;;5.80;;
12958;SDS011;6544;51.666;6.634;2023-07-09T02:54:34;8.07;;;5.75;;
12958;SDS011;6544;51.666;6.634;2023-07-09T02:57:01;9.48;;;6.00;;
12958;SDS011;6544;51.666;6.634;2023-07-09T02:59:29;7.80;;;5.50;;
12958;SDS011;6544;51.666;6.634;2023-07-09T03:01:56;7.55;;;5.70;;
12958;SDS011;6544;51.666;6.634;2023-07-09T03:04:24;9.25;;;6.22;;
12958;SDS011;6544;51.666;6.634;2023-07-09T03:06:51;12.20;;;6.13;;
12958;SDS011;6544;51.666;6.634;2023-07-09T03:09:19;9.90;;;5.88;;
12958;SDS011;6544;51.666;6.634;2023-07-09T03:11:46;9.35;;;6.05;;
12958;SDS011;6544;51.666;6.634;2023-07-09T03:14:13;8.60;;;5.68;;
12958;SDS011;6544;51.666;6.634;2023-07-09T03:16:41;9.30;;;5.93;;
12958;SDS011;6544;51.666;6.634;2023-07-09T03:19:07;8.43;;;5.97;;
12958;SDS011;6544;51.666;6.634;2023-07-09T03:21:36;10.98;;;5.55;;
12958;SDS011;6544;51.666;6.634;2023-07-09T03:24:03;7.80;;;5.90;;
12958;SDS011;6544;51.666;6.634;2023-07-09T03:26:30;8.98;;;6.10;;
12958;SDS011;6544;51.666;6.634;2023-07-09T03:28:57;12.48;;;6.03;;
12958;SDS011;6544;51.666;6.634;2023-07-09T03:31:24;12.88;;;6.80;;
12958;SDS011;6544;51.666;6.634;2023-07-09T03:33:51;10.73;;;7.00;;
12958;SDS011;6544;51.666;6.634;2023-07-09T03:36:19;11.07;;;6.43;;
12958;SDS011;6544;51.666;6.634;2023-07-09T03:38:48;10.10;;;7.13;;
12958;SDS011;6544;51.666;6.634;2023-07-09T03:41:15;9.57;;;6.20;;
12958;SDS011;6544;51.666;6.634;2023-07-09T03:43:42;9.82;;;5.95;;
12958;SDS011;6544;51.666;6.634;2023-07-09T03:46:09;11.75;;;6.72;;
12958;SDS011;6544;51.666;6.634;2023-07-09T03:48:36;11.35;;;6.43;;
12958;SDS011;6544;51.666;6.634;2023-07-09T03:51:03;18.73;;;7.00;;
12958;SDS011;6544;51.666;6.634;2023-07-09T03:53:30;12.65;;;6.80;;
12958;SDS011;6544;51.666;6.634;2023-07-09T03:55:58;12.68;;;6.55;;
12958;SDS011;6544;51.666;6.634;2023-07-09T03:58:26;14.95;;;6.82;;
12958;SDS011;6544;51.666;6.634;2023-07-09T04:00:53;14.20;;;7.57;;
12958;SDS011;6544;51.666;6.634;2023-07-09T04:03:20;10.45;;;6.50;;
12958;SDS011;6544;51.666;6.634;2023-07-09T04:05:47;9.55;;;6.32;;
12958;SDS011;6544;51.666;6.634;2023-07-09T04:08:14;9.25;;;6.05;;
12958;SDS011;6544;51.666;6.634;2023-07-09T04:10:41;10.88;;;6.13;;
12958;SDS011;6544;51.666;6.634;2023-07-09T04:13:10;11.70;;;6.63;;
12958;SDS011;6544;51.666;6.634;2023-07-09T04:15:36;10.82;;;6.90;;
12958;SDS011;6544;51.666;6.634;2023-07-09T04:18:03;12.68;;;6.38;;
12958;SDS011;6544;51.666;6.634;2023-07-09T04:20:30;11.27;;;6.75;;
12958;SDS011;6544;51.666;6.634;2023-07-09T04:22:57;11.23;;;6.60;;
12958;SDS011;6544;51.666;6.634;2023-07-09T04:25:24;11.63;;;6.63;;
12958;SDS011;6544;51.666;6.634;2023-07-09T04:27:51;11.02;;;7.10;;
12958;SDS011;6544;51.666;6.634;2023-07-09T04:30:19;9.85;;;6.82;;
12958;SDS011;6544;51.666;6.634;2023-07-09T04:32:46;10.07;;;6.68;;
12958;SDS011;6544;51.666;6.634;2023-07-09T04:35:13;9.00;;;6.40;;
12958;SDS011;6544;51.666;6.634;2023-07-09T04:37:40;12.30;;;7.10;;
12958;SDS011;6544;51.666;6.634;2023-07-09T04:40:08;9.38;;;6.40;;
12958;SDS011;6544;51.666;6.634;2023-07-09T04:42:37;8.73;;;6.13;;
12958;SDS011;6544;51.666;6.634;2023-07-09T04:45:06;12.05;;;6.65;;
12958;SDS011;6544;51.666;6.634;2023-07-09T04:47:36;9.32;;;6.68;;
12958;SDS011;6544;51.666;6.634;2023-07-09T04:50:04;9.63;;;6.80;;
12958;SDS011;6544;51.666;6.634;2023-07-09T04:52:33;9.57;;;6.45;;
12958;SDS011;6544;51.666;6.634;2023-07-09T04:55:01;9.43;;;6.40;;
12958;SDS011;6544;51.666;6.634;2023-07-09T04:57:28;8.85;;;6.13;;
12958;SDS011;6544;51.666;6.634;2023-07-09T04:59:55;9.43;;;6.38;;
12958;SDS011;6544;51.666;6.634;2023-07-09T05:02:23;12.10;;;6.50;;
12958;SDS011;6544;51.666;6.634;2023-07-09T05:04:51;10.57;;;6.68;;
12958;SDS011;6544;51.666;6.634;2023-07-09T05:07:18;7.38;;;6.10;;
12958;SDS011;6544;51.666;6.634;2023-07-09T05:09:45;9.05;;;5.90;;
12958;SDS011;6544;51.666;6.634;2023-07-09T05:12:12;9.00;;;6.38;;
12958;SDS011;6544;51.666;6.634;2023-07-09T05:14:39;12.32;;;6.30;;
12958;SDS011;6544;51.666;6.634;2023-07-09T05:17:06;11.75;;;5.97;;
12958;SDS011;6544;51.666;6.634;2023-07-09T05:19:33;9.85;;;6.32;;
12958;SDS011;6544;51.666;6.634;2023-07-09T05:22:03;9.35;;;6.05;;
12958;SDS011;6544;51.666;6.634;2023-07-09T05:24:30;8.50;;;6.00;;
12958;SDS011;6544;51.666;6.634;2023-07-09T05:26:57;10.88;;;6.30;;
12958;SDS011;6544;51.666;6.634;2023-07-09T05:29:24;11.02;;;6.35;;
12958;SDS011;6544;51.666;6.634;2023-07-09T05:31:51;14.85;;;6.53;;
12958;SDS011;6544;51.666;6.634;2023-07-09T05:34:18;10.55;;;5.88;;
12958;SDS011;6544;51.666;6.634;2023-07-09T05:36:46;10.50;;;6.00;;
12958;SDS011;6544;51.666;6.634;2023-07-09T05:39:14;9.75;;;6.18;;
12958;SDS011;6544;51.666;6.634;2023-07-09T05:41:41;10.13;;;5.82;;
12958;SDS011;6544;51.666;6.634;2023-07-09T05:44:08;8.65;;;5.53;;
12958;SDS011;6544;51.666;6.634;2023-07-09T05:46:35;12.90;;;5.80;;
12958;SDS011;6544;51.666;6.634;2023-07-09T05:49:03;11.35;;;5.78;;
12958;SDS011;6544;51.666;6.634;2023-07-09T05:51:30;10.45;;;6.25;;
12958;SDS011;6544;51.666;6.634;2023-07-09T05:53:57;10.35;;;5.28;;
12958;SDS011;6544;51.666;6.634;2023-07-09T05:56:25;9.40;;;6.00;;
12958;SDS011;6544;51.666;6.634;2023-07-09T05:58:52;8.85;;;5.65;;
12958;SDS011;6544;51.666;6.634;2023-07-09T06:01:21;9.95;;;5.70;;
12958;SDS011;6544;51.666;6.634;2023-07-09T06:03:48;8.73;;;6.25;;
12958;SDS011;6544;51.666;6.634;2023-07-09T06:06:15;9.93;;;6.35;;
12958;SDS011;6544;51.666;6.634;2023-07-09T06:08:42;11.57;;;6.18;;
12958;SDS011;6544;51.666;6.634;2023-07-09T06:11:09;9.70;;;5.45;;
12958;SDS011;6544;51.666;6.634;2023-07-09T06:13:37;10.77;;;5.78;;
12958;SDS011;6544;51.666;6.634;2023-07-09T06:16:04;11.35;;;6.07;;
12958;SDS011;6544;51.666;6.634;2023-07-09T06:18:31;11.18;;;6.63;;
12958;SDS011;6544;51.666;6.634;2023-07-09T06:20:59;9.13;;;5.72;;
12958;SDS011;6544;51.666;6.634;2023-07-09T06:23:27;8.48;;;5.88;;
12958;SDS011;6544;51.666;6.634;2023-07-09T06:25:55;8.80;;;5.68;;
12958;SDS011;6544;51.666;6.634;2023-07-09T06:28:23;9.25;;;5.60;;
12958;SDS011;6544;51.666;6.634;2023-07-09T06:30:55;11.77;;;5.65;;
12958;SDS011;6544;51.666;6.634;2023-07-09T06:33:22;12.80;;;5.90;;
12958;SDS011;6544;51.666;6.634;2023-07-09T06:35:50;12.05;;;6.00;;
12958;SDS011;6544;51.666;6.634;2023-07-09T06:38:19;13.60;;;6.63;;
12958;SDS011;6544;51.666;6.634;2023-07-09T06:40:47;13.23;;;6.43;;
12958;SDS011;6544;51.666;6.634;2023-07-09T06:43:14;10.32;;;6.00;;
12958;SDS011;6544;51.666;6.634;2023-07-09T06:45:47;11.70;;;6.20;;
12958;SDS011;6544;51.666;6.634;2023-07-09T06:48:16;12.73;;;5.80;;
12958;SDS011;6544;51.666;6.634;2023-07-09T06:50:43;8.93;;;5.68;;
12958;SDS011;6544;51.666;6.634;2023-07-09T06:53:10;12.80;;;6.22;;
12958;SDS011;6544;51.666;6.634;2023-07-09T06:55:37;9.65;;;6.18;;
12958;SDS011;6544;51.666;6.634;2023-07-09T06:58:04;11.45;;;6.32;;
12958;SDS011;6544;51.666;6.634;2023-07-09T07:00:32;12.38;;;6.70;;
12958;SDS011;6544;51.666;6.634;2023-07-09T07:03:00;10.23;;;6.25;;
12958;SDS011;6544;51.666;6.634;2023-07-09T07:05:28;11.73;;;6.05;;
12958;SDS011;6544;51.666;6.634;2023-07-09T07:07:55;13.50;;;6.57;;
12958;SDS011;6544;51.666;6.634;2023-07-09T07:10:22;17.05;;;6.57;;
12958;SDS011;6544;51.666;6.634;2023-07-09T07:12:50;14.82;;;6.60;;
12958;SDS011;6544;51.666;6.634;2023-07-09T07:15:17;13.60;;;6.30;;
12958;SDS011;6544;51.666;6.634;2023-07-09T07:17:44;18.75;;;6.80;;
12958;SDS011;6544;51.666;6.634;2023-07-09T07:20:12;18.38;;;6.82;;
12958;SDS011;6544;51.666;6.634;2023-07-09T07:22:41;14.63;;;6.28;;
12958;SDS011;6544;51.666;6.634;2023-07-09T07:25:08;11.27;;;6.32;;
12958;SDS011;6544;51.666;6.634;2023-07-09T07:27:36;19.33;;;7.28;;
12958;SDS011;6544;51.666;6.634;2023-07-09T07:30:04;12.15;;;6.10;;
12958;SDS011;6544;51.666;6.634;2023-07-09T07:32:34;14.80;;;6.88;;
12958;SDS011;6544;51.666;6.634;2023-07-09T07:35:02;13.98;;;6.68;;
12958;SDS011;6544;51.666;6.634;2023-07-09T07:37:29;13.48;;;6.68;;
12958;SDS011;6544;51.666;6.634;2023-07-09T07:39:57;14.07;;;7.15;;
12958;SDS011;6544;51.666;6.634;2023-07-09T07:42:24;12.52;;;6.57;;
12958;SDS011;6544;51.666;6.634;2023-07-09T07:44:51;13.93;;;6.43;;
12958;SDS011;6544;51.666;6.634;2023-07-09T07:47:18;19.42;;;7.28;;
12958;SDS011;6544;51.666;6.634;2023-07-09T07:49:45;11.98;;;6.55;;
12958;SDS011;6544;51.666;6.634;2023-07-09T07:52:12;12.02;;;6.38;;
12958;SDS011;6544;51.666;6.634;2023-07-09T07:54:39;13.40;;;6.47;;
12958;SDS011;6544;51.666;6.634;2023-07-09T07:57:08;10.68;;;6.43;;
12958;SDS011;6544;51.666;6.634;2023-07-09T07:59:35;12.50;;;6.10;;
12958;SDS011;6544;51.666;6.634;2023-07-09T08:02:03;12.23;;;5.90;;
12958;SDS011;6544;51.666;6.634;2023-07-09T08:04:31;16.45;;;6.55;;
12958;SDS011;6544;51.666;6.634;2023-07-09T08:06:58;17.00;;;6.65;;
12958;SDS011;6544;51.666;6.634;2023-07-09T08:09:25;9.18;;;5.72;;
12958;SDS011;6544;51.666;6.634;2023-07-09T08:11:51;11.63;;;6.13;;
12958;SDS011;6544;51.666;6.634;2023-07-09T08:14:20;11.65;;;6.43;;
12958;SDS011;6544;51.666;6.634;2023-07-09T08:16:47;12.85;;;6.10;;
12958;SDS011;6544;51.666;6.634;2023-07-09T08:19:17;11.63;;;5.93;;
12958;SDS011;6544;51.666;6.634;2023-07-09T08:21:45;11.30;;;6.38;;
12958;SDS011;6544;51.666;6.634;2023-07-09T08:24:12;18.35;;;5.85;;
12958;SDS011;6544;51.666;6.634;2023-07-09T08:26:39;9.65;;;5.88;;
12958;SDS011;6544;51.666;6.634;2023-07-09T08:29:06;8.65;;;5.78;;
12958;SDS011;6544;51.666;6.634;2023-07-09T08:31:34;11.95;;;6.10;;
12958;SDS011;6544;51.666;6.634;2023-07-09T08:34:01;8.52;;;5.75;;
12958;SDS011;6544;51.666;6.634;2023-07-09T08:36:28;11.48;;;6.07;;
12958;SDS011;6544;51.666;6.634;2023-07-09T08:38:55;8.80;;;5.50;;
12958;SDS011;6544;51.666;6.634;2023-07-09T08:41:29;9.68;;;5.80;;
12958;SDS011;6544;51.666;6.634;2023-07-09T08:44:07;12.82;;;5.35;;
12958;SDS011;6544;51.666;6.634;2023-07-09T08:46:47;8.85;;;5.72;;
12958;SDS011;6544;51.666;6.634;2023-07-09T08:49:20;10.88;;;6.30;;
12958;SDS011;6544;51.666;6.634;2023-07-09T08:51:54;11.80;;;5.57;;
12958;SDS011;6544;51.666;6.634;2023-07-09T08:54:25;15.68;;;6.05;;
12958;SDS011;6544;51.666;6.634;2023-07-09T08:56:55;10.25;;;5.40;;
12958;SDS011;6544;51.666;6.634;2023-07-09T08:59:26;7.68;;;5.38;;
12958;SDS011;6544;51.666;6.634;2023-07-09T09:01:56;7.50;;;4.80;;
12958;SDS011;6544;51.666;6.634;2023-07-09T09:04:27;8.52;;;4.75;;
12958;SDS011;6544;51.666;6.634;2023-07-09T09:06:57;15.82;;;6.18;;
12958;SDS011;6544;51.666;6.634;2023-07-09T09:09:32;9.77;;;5.00;;
12958;SDS011;6544;51.666;6.634;2023-07-09T09:12:08;10.00;;;5.70;;
12958;SDS011;6544;51.666;6.634;2023-07-09T09:14:42;13.38;;;5.15;;
12958;SDS011;6544;51.666;6.634;2023-07-09T09:17:13;9.52;;;5.05;;
12958;SDS011;6544;51.666;6.634;2023-07-09T09:19:44;11.43;;;4.68;;
12958;SDS011;6544;51.666;6.634;2023-07-09T09:22:16;9.20;;;4.85;;
12958;SDS011;6544;51.666;6.634;2023-07-09T09:24:52;11.63;;;4.90;;
12958;SDS011;6544;51.666;6.634;2023-07-09T09:27:23;8.43;;;5.10;;
12958;SDS011;6544;51.666;6.634;2023-07-09T09:29:50;6.10;;;4.30;;
12958;SDS011;6544;51.666;6.634;2023-07-09T09:32:20;15.02;;;5.57;;
12958;SDS011;6544;51.666;6.634;2023-07-09T09:34:51;16.85;;;5.05;;
12958;SDS011;6544;51.666;6.634;2023-07-09T09:37:23;7.97;;;4.50;;
12958;SDS011;6544;51.666;6.634;2023-07-09T09:39:52;11.45;;;4.88;;
12958;SDS011;6544;51.666;6.634;2023-07-09T09:42:19;8.85;;;4.93;;
12958;SDS011;6544;51.666;6.634;2023-07-09T09:44:46;12.35;;;5.15;;
12958;SDS011;6544;51.666;6.634;2023-07-09T09:47:13;14.00;;;5.13;;
12958;SDS011;6544;51.666;6.634;2023-07-09T09:49:43;8.48;;;4.57;;
12958;SDS011;6544;51.666;6.634;2023-07-09T09:52:11;7.30;;;4.57;;
12958;SDS011;6544;51.666;6.634;2023-07-09T09:54:40;10.30;;;4.95;;
12958;SDS011;6544;51.666;6.634;2023-07-09T09:57:15;11.15;;;4.50;;
12958;SDS011;6544;51.666;6.634;2023-07-09T09:59:45;7.07;;;4.30;;
12958;SDS011;6544;51.666;6.634;2023-07-09T10:02:15;8.75;;;4.80;;
12958;SDS011;6544;51.666;6.634;2023-07-09T10:04:45;7.95;;;4.63;;
12958;SDS011;6544;51.666;6.634;2023-07-09T10:07:14;7.20;;;4.38;;
12958;SDS011;6544;51.666;6.634;2023-07-09T10:09:49;5.50;;;4.00;;
12958;SDS011;6544;51.666;6.634;2023-07-09T10:12:18;9.57;;;4.60;;
12958;SDS011;6544;51.666;6.634;2023-07-09T10:15:14;8.88;;;4.10;;
12958;SDS011;6544;51.666;6.634;2023-07-09T10:17:53;5.75;;;4.00;;
12958;SDS011;6544;51.666;6.634;2023-07-09T10:20:25;11.57;;;4.60;;
12958;SDS011;6544;51.666;6.634;2023-07-09T10:23:00;7.88;;;3.88;;
12958;SDS011;6544;51.666;6.634;2023-07-09T10:25:35;7.50;;;4.15;;
12958;SDS011;6544;51.666;6.634;2023-07-09T10:28:12;4.57;;;3.30;;
12958;SDS011;6544;51.666;6.634;2023-07-09T10:31:00;8.60;;;3.92;;
12958;SDS011;6544;51.666;6.634;2023-07-09T10:33:36;8.95;;;4.25;;
12958;SDS011;6544;51.666;6.634;2023-07-09T10:36:20;9.23;;;4.15;;
12958;SDS011;6544;51.666;6.634;2023-07-09T10:38:57;7.25;;;3.88;;
12958;SDS011;6544;51.666;6.634;2023-07-09T10:41:29;7.60;;;4.13;;
12958;SDS011;6544;51.666;6.634;2023-07-09T10:43:58;10.98;;;3.97;;
12958;SDS011;6544;51.666;6.634;2023-07-09T10:46:31;9.35;;;3.63;;
12958;SDS011;6544;51.666;6.634;2023-07-09T10:49:01;8.80;;;4.15;;
12958;SDS011;6544;51.666;6.634;2023-07-09T10:51:37;6.90;;;4.38;;
12958;SDS011;6544;51.666;6.634;2023-07-09T10:54:07;7.82;;;3.70;;
12958;SDS011;6544;51.666;6.634;2023-07-09T10:56:41;9.90;;;4.65;;
12958;SDS011;6544;51.666;6.634;2023-07-09T10:59:16;7.30;;;3.80;;
12958;SDS011;6544;51.666;6.634;2023-07-09T11:01:49;6.13;;;4.30;;
12958;SDS011;6544;51.666;6.634;2023-07-09T11:04:21;5.68;;;3.80;;
12958;SDS011;6544;51.666;6.634;2023-07-09T11:06:58;6.05;;;3.85;;
12958;SDS011;6544;51.666;6.634;2023-07-09T11:09:34;5.28;;;3.58;;
12958;SDS011;6544;51.666;6.634;2023-07-09T11:12:07;8.35;;;3.75;;
12958;SDS011;6544;51.666;6.634;2023-07-09T11:14:39;11.23;;;3.67;;
12958;SDS011;6544;51.666;6.634;2023-07-09T11:17:11;8.05;;;3.78;;
12958;SDS011;6544;51.666;6.634;2023-07-09T11:19:41;6.82;;;4.10;;
12958;SDS011;6544;51.666;6.634;2023-07-09T11:22:16;8.93;;;4.43;;
12958;SDS011;6544;51.666;6.634;2023-07-09T11:24:46;4.13;;;3.30;;
12958;SDS011;6544;51.666;6.634;2023-07-09T11:27:16;6.28;;;3.63;;
12958;SDS011;6544;51.666;6.634;2023-07-09T11:29:45;6.30;;;3.67;;
12958;SDS011;6544;51.666;6.634;2023-07-09T11:32:18;5.90;;;3.90;;
12958;SDS011;6544;51.666;6.634;2023-07-09T11:34:47;9.15;;;4.07;;
12958;SDS011;6544;51.666;6.634;2023-07-09T11:37:15;9.30;;;3.75;;
12958;SDS011;6544;51.666;6.634;2023-07-09T11:39:44;5.25;;;3.50;;
12958;SDS011;6544;51.666;6.634;2023-07-09T11:42:25;7.95;;;3.72;;
12958;SDS011;6544;51.666;6.634;2023-07-09T11:44:58;8.88;;;4.05;;
12958;SDS011;6544;51.666;6.634;2023-07-09T11:47:31;7.32;;;3.80;;
12958;SDS011;6544;51.666;6.634;2023-07-09T11:50:03;5.97;;;3.90;;
12958;SDS011;6544;51.666;6.634;2023-07-09T11:52:34;4.97;;;3.67;;
12958;SDS011;6544;51.666;6.634;2023-07-09T11:55:19;8.68;;;4.22;;
12958;SDS011;6544;51.666;6.634;2023-07-09T11:57:53;5.72;;;4.05;;
12958;SDS011;6544;51.666;6.634;2023-07-09T12:00:20;6.85;;;4.38;;
12958;SDS011;6544;51.666;6.634;2023-07-09T12:02:47;7.55;;;4.30;;
12958;SDS011;6544;51.666;6.634;2023-07-09T12:05:17;8.13;;;4.50;;
12958;SDS011;6544;51.666;6.634;2023-07-09T12:07:48;6.70;;;4.25;;
12958;SDS011;6544;51.666;6.634;2023-07-09T12:10:21;8.20;;;4.35;;
12958;SDS011;6544;51.666;6.634;2023-07-09T12:12:59;8.43;;;4.30;;
12958;SDS011;6544;51.666;6.634;2023-07-09T12:15:49;8.32;;;4.10;;
12958;SDS011;6544;51.666;6.634;2023-07-09T12:18:16;8.68;;;4.53;;
12958;SDS011;6544;51.666;6.634;2023-07-09T12:20:45;8.63;;;4.45;;
12958;SDS011;6544;51.666;6.634;2023-07-09T12:23:19;12.80;;;4.53;;
12958;SDS011;6544;51.666;6.634;2023-07-09T12:25:48;6.75;;;4.13;;
12958;SDS011;6544;51.666;6.634;2023-07-09T12:28:16;10.02;;;4.60;;
12958;SDS011;6544;51.666;6.634;2023-07-09T12:30:46;10.98;;;4.10;;
12958;SDS011;6544;51.666;6.634;2023-07-09T12:33:16;9.85;;;4.63;;
12958;SDS011;6544;51.666;6.634;2023-07-09T12:35:44;8.88;;;4.60;;
12958;SDS011;6544;51.666;6.634;2023-07-09T12:38:16;9.43;;;4.18;;
12958;SDS011;6544;51.666;6.634;2023-07-09T12:40:46;7.20;;;4.43;;
12958;SDS011;6544;51.666;6.634;2023-07-09T12:43:15;6.68;;;4.20;;
12958;SDS011;6544;51.666;6.634;2023-07-09T12:45:46;4.88;;;4.03;;
12958;SDS011;6544;51.666;6.634;2023-07-09T12:48:13;7.57;;;4.07;;
12958;SDS011;6544;51.666;6.634;2023-07-09T12:50:40;10.82;;;4.30;;
12958;SDS011;6544;51.666;6.634;2023-07-09T12:53:12;6.15;;;4.05;;
12958;SDS011;6544;51.666;6.634;2023-07-09T12:55:44;6.57;;;4.13;;
12958;SDS011;6544;51.666;6.634;2023-07-09T12:58:14;8.32;;;3.92;;
12958;SDS011;6544;51.666;6.634;2023-07-09T13:00:46;6.22;;;3.58;;
12958;SDS011;6544;51.666;6.634;2023-07-09T13:03:16;5.63;;;3.83;;
12958;SDS011;6544;51.666;6.634;2023-07-09T13:05:53;6.50;;;4.22;;
12958;SDS011;6544;51.666;6.634;2023-07-09T13:08:21;9.77;;;3.90;;
12958;SDS011;6544;51.666;6.634;2023-07-09T13:10:49;5.18;;;3.90;;
12958;SDS011;6544;51.666;6.634;2023-07-09T13:13:18;7.00;;;3.78;;
12958;SDS011;6544;51.666;6.634;2023-07-09T13:15:47;5.65;;;4.05;;
12958;SDS011;6544;51.666;6.634;2023-07-09T13:18:17;6.43;;;3.75;;
12958;SDS011;6544;51.666;6.634;2023-07-09T13:20:44;5.78;;;4.15;;
12958;SDS011;6544;51.666;6.634;2023-07-09T13:23:14;5.80;;;3.80;;
12958;SDS011;6544;51.666;6.634;2023-07-09T13:25:42;5.10;;;3.65;;
12958;SDS011;6544;51.666;6.634;2023-07-09T13:28:18;6.55;;;3.88;;
12958;SDS011;6544;51.666;6.634;2023-07-09T13:30:46;7.50;;;4.70;;
12958;SDS011;6544;51.666;6.634;2023-07-09T13:33:13;7.80;;;3.50;;
12958;SDS011;6544;51.666;6.634;2023-07-09T13:35:40;7.50;;;3.78;;
12958;SDS011;6544;51.666;6.634;2023-07-09T13:38:13;8.15;;;3.80;;
12958;SDS011;6544;51.666;6.634;2023-07-09T13:40:42;10.13;;;3.70;;
12958;SDS011;6544;51.666;6.634;2023-07-09T13:43:11;8.73;;;4.20;;
12958;SDS011;6544;51.666;6.634;2023-07-09T13:45:41;7.35;;;4.10;;
12958;SDS011;6544;51.666;6.634;2023-07-09T13:48:12;7.95;;;4.10;;
12958;SDS011;6544;51.666;6.634;2023-07-09T13:50:41;9.05;;;6.15;;
12958;SDS011;6544;51.666;6.634;2023-07-09T13:53:10;9.23;;;5.40;;
12958;SDS011;6544;51.666;6.634;2023-07-09T13:55:40;8.77;;;3.60;;
12958;SDS011;6544;51.666;6.634;2023-07-09T13:58:08;7.68;;;4.30;;
12958;SDS011;6544;51.666;6.634;2023-07-09T14:00:35;8.60;;;4.05;;
12958;SDS011;6544;51.666;6.634;2023-07-09T14:03:04;8.48;;;3.75;;
12958;SDS011;6544;51.666;6.634;2023-07-09T14:05:39;9.23;;;4.10;;
12958;SDS011;6544;51.666;6.634;2023-07-09T14:08:07;8.75;;;4.18;;
12958;SDS011;6544;51.666;6.634;2023-07-09T14:10:34;15.98;;;8.63;;
12958;SDS011;6544;51.666;6.634;2023-07-09T14:13:01;15.25;;;5.32;;
12958;SDS011;6544;51.666;6.634;2023-07-09T14:15:28;7.72;;;4.38;;
12958;SDS011;6544;51.666;6.634;2023-07-09T14:17:55;5.15;;;4.00;;
12958;SDS011;6544;51.666;6.634;2023-07-09T14:20:24;5.15;;;3.80;;
12958;SDS011;6544;51.666;6.634;2023-07-09T14:22:51;7.25;;;4.60;;
12958;SDS011;6544;51.666;6.634;2023-07-09T14:25:19;5.38;;;3.90;;
12958;SDS011;6544;51.666;6.634;2023-07-09T14:27:54;5.32;;;3.80;;
12958;SDS011;6544;51.666;6.634;2023-07-09T14:30:21;6.80;;;4.05;;
12958;SDS011;6544;51.666;6.634;2023-07-09T14:32:50;7.90;;;4.05;;
12958;SDS011;6544;51.666;6.634;2023-07-09T14:35:18;8.45;;;4.40;;
12958;SDS011;6544;51.666;6.634;2023-07-09T14:37:49;7.47;;;4.13;;
12958;SDS011;6544;51.666;6.634;2023-07-09T14:40:17;6.85;;;4.03;;
12958;SDS011;6544;51.666;6.634;2023-07-09T14:42:46;6.97;;;3.70;;
12958;SDS011;6544;51.666;6.634;2023-07-09T14:45:18;9.30;;;4.25;;
12958;SDS011;6544;51.666;6.634;2023-07-09T14:47:47;6.63;;;3.85;;
12958;SDS011;6544;51.666;6.634;2023-07-09T14:50:14;6.40;;;4.03;;
12958;SDS011;6544;51.666;6.634;2023-07-09T14:52:41;9.10;;;4.18;;
12958;SDS011;6544;51.666;6.634;2023-07-09T14:55:15;6.05;;;4.28;;
12958;SDS011;6544;51.666;6.634;2023-07-09T14:57:44;8.18;;;4.10;;
12958;SDS011;6544;51.666;6.634;2023-07-09T15:00:14;9.48;;;4.80;;
12958;SDS011;6544;51.666;6.634;2023-07-09T15:02:43;10.82;;;4.93;;
12958;SDS011;6544;51.666;6.634;2023-07-09T15:05:13;11.73;;;5.50;;
12958;SDS011;6544;51.666;6.634;2023-07-09T15:07:41;12.30;;;6.60;;
12958;SDS011;6544;51.666;6.634;2023-07-09T15:10:12;13.95;;;6.40;;